sensor_id;sensor_type;location;lat;lon;timestamp;P1;durP1;ratioP1;P2;durP2;ratioP2
10144;SDS011;5113;41.822;23.564;2023-09-30T00:02:21;5.73;;;5.00;;
10144;SDS011;5113;41.822;23.564;2023-09-30T00:05:28;5.90;;;5.20;;
10144;SDS011;5113;41.822;23.564;2023-09-30T00:08:36;6.87;;;5.80;;
10144;SDS011;5113;41.822;23.564;2023-09-30T00:11:44;6.33;;;5.47;;
10144;SDS011;5113;41.822;23.564;2023-09-30T00:14:51;6.23;;;5.60;;
10144;SDS011;5113;41.822;23.564;2023-09-30T00:17:58;5.97;;;5.37;;
10144;SDS011;5113;41.822;23.564;2023-09-30T00:21:06;7.97;;;5.30;;
10144;SDS011;5113;41.822;23.564;2023-09-30T00:24:14;6.53;;;5.40;;
10144;SDS011;5113;41.822;23.564;2023-09-30T00:27:20;6.27;;;5.67;;
10144;SDS011;5113;41.822;23.564;2023-09-30T00:30:27;6.83;;;5.30;;
10144;SDS011;5113;41.822;23.564;2023-09-30T00:33:34;5.70;;;5.10;;
10144;SDS011;5113;41.822;23.564;2023-09-30T00:36:40;10.53;;;6.53;;
10144;SDS011;5113;41.822;23.564;2023-09-30T00:39:48;7.20;;;6.43;;
10144;SDS011;5113;41.822;23.564;2023-09-30T00:42:55;6.40;;;5.73;;
10144;SDS011;5113;41.822;23.564;2023-09-30T00:46:02;7.13;;;6.10;;
10144;SDS011;5113;41.822;23.564;2023-09-30T00:49:12;8.33;;;5.63;;
10144;SDS011;5113;41.822;23.564;2023-09-30T00:52:22;6.30;;;5.70;;
10144;SDS011;5113;41.822;23.564;2023-09-30T00:55:30;6.63;;;5.93;;
10144;SDS011;5113;41.822;23.564;2023-09-30T00:58:37;6.53;;;5.93;;
10144;SDS011;5113;41.822;23.564;2023-09-30T01:01:45;8.87;;;6.50;;
10144;SDS011;5113;41.822;23.564;2023-09-30T01:04:52;6.57;;;5.67;;
10144;SDS011;5113;41.822;23.564;2023-09-30T01:08:01;9.07;;;6.37;;
10144;SDS011;5113;41.822;23.564;2023-09-30T01:11:10;6.63;;;5.87;;
10144;SDS011;5113;41.822;23.564;2023-09-30T01:14:26;8.10;;;5.73;;
10144;SDS011;5113;41.822;23.564;2023-09-30T01:17:34;8.33;;;5.33;;
10144;SDS011;5113;41.822;23.564;2023-09-30T01:20:41;7.33;;;6.47;;
10144;SDS011;5113;41.822;23.564;2023-09-30T01:23:49;9.37;;;6.87;;
10144;SDS011;5113;41.822;23.564;2023-09-30T01:26:56;8.77;;;6.43;;
10144;SDS011;5113;41.822;23.564;2023-09-30T01:30:03;8.40;;;6.47;;
10144;SDS011;5113;41.822;23.564;2023-09-30T01:33:11;7.10;;;5.90;;
10144;SDS011;5113;41.822;23.564;2023-09-30T01:36:18;10.80;;;8.27;;
10144;SDS011;5113;41.822;23.564;2023-09-30T01:39:27;24.50;;;11.27;;
10144;SDS011;5113;41.822;23.564;2023-09-30T01:42:35;28.00;;;11.13;;
10144;SDS011;5113;41.822;23.564;2023-09-30T01:45:42;27.63;;;12.67;;
10144;SDS011;5113;41.822;23.564;2023-09-30T01:48:49;17.17;;;10.07;;
10144;SDS011;5113;41.822;23.564;2023-09-30T01:51:56;13.87;;;9.23;;
10144;SDS011;5113;41.822;23.564;2023-09-30T01:55:04;12.77;;;7.57;;
10144;SDS011;5113;41.822;23.564;2023-09-30T01:58:11;11.60;;;7.77;;
10144;SDS011;5113;41.822;23.564;2023-09-30T02:01:18;9.77;;;7.27;;
10144;SDS011;5113;41.822;23.564;2023-09-30T02:04:25;11.60;;;7.77;;
10144;SDS011;5113;41.822;23.564;2023-09-30T02:07:31;10.87;;;6.87;;
10144;SDS011;5113;41.822;23.564;2023-09-30T02:10:40;8.70;;;6.47;;
10144;SDS011;5113;41.822;23.564;2023-09-30T02:13:46;8.93;;;6.07;;
10144;SDS011;5113;41.822;23.564;2023-09-30T02:16:53;7.20;;;5.80;;
10144;SDS011;5113;41.822;23.564;2023-09-30T02:20:00;7.10;;;6.40;;
10144;SDS011;5113;41.822;23.564;2023-09-30T02:23:10;6.77;;;5.67;;
10144;SDS011;5113;41.822;23.564;2023-09-30T02:26:18;6.03;;;5.17;;
10144;SDS011;5113;41.822;23.564;2023-09-30T02:29:25;6.23;;;5.13;;
10144;SDS011;5113;41.822;23.564;2023-09-30T02:32:32;10.50;;;5.87;;
10144;SDS011;5113;41.822;23.564;2023-09-30T02:35:43;6.60;;;5.57;;
10144;SDS011;5113;41.822;23.564;2023-09-30T02:38:50;5.33;;;4.80;;
10144;SDS011;5113;41.822;23.564;2023-09-30T02:41:58;9.10;;;5.73;;
10144;SDS011;5113;41.822;23.564;2023-09-30T02:45:05;6.80;;;5.40;;
10144;SDS011;5113;41.822;23.564;2023-09-30T02:48:14;8.17;;;5.43;;
10144;SDS011;5113;41.822;23.564;2023-09-30T02:51:20;6.37;;;5.73;;
10144;SDS011;5113;41.822;23.564;2023-09-30T02:54:27;7.23;;;6.30;;
10144;SDS011;5113;41.822;23.564;2023-09-30T02:57:37;8.20;;;6.37;;
10144;SDS011;5113;41.822;23.564;2023-09-30T03:00:47;12.27;;;6.73;;
10144;SDS011;5113;41.822;23.564;2023-09-30T03:03:54;7.40;;;6.33;;
10144;SDS011;5113;41.822;23.564;2023-09-30T03:07:01;7.93;;;6.83;;
10144;SDS011;5113;41.822;23.564;2023-09-30T03:10:08;7.83;;;7.03;;
10144;SDS011;5113;41.822;23.564;2023-09-30T03:13:18;7.23;;;6.53;;
10144;SDS011;5113;41.822;23.564;2023-09-30T03:16:26;7.60;;;6.63;;
10144;SDS011;5113;41.822;23.564;2023-09-30T03:19:32;8.17;;;5.80;;
10144;SDS011;5113;41.822;23.564;2023-09-30T03:22:39;9.70;;;6.67;;
10144;SDS011;5113;41.822;23.564;2023-09-30T03:25:46;9.70;;;6.30;;
10144;SDS011;5113;41.822;23.564;2023-09-30T03:28:54;7.87;;;6.83;;
10144;SDS011;5113;41.822;23.564;2023-09-30T03:32:01;8.13;;;6.80;;
10144;SDS011;5113;41.822;23.564;2023-09-30T03:35:08;10.67;;;6.00;;
10144;SDS011;5113;41.822;23.564;2023-09-30T03:38:19;6.10;;;5.50;;
10144;SDS011;5113;41.822;23.564;2023-09-30T03:41:27;6.97;;;5.43;;
10144;SDS011;5113;41.822;23.564;2023-09-30T03:44:35;5.07;;;4.50;;
10144;SDS011;5113;41.822;23.564;2023-09-30T03:47:42;7.93;;;5.53;;
10144;SDS011;5113;41.822;23.564;2023-09-30T03:50:50;7.87;;;6.40;;
10144;SDS011;5113;41.822;23.564;2023-09-30T03:53:57;7.13;;;6.33;;
10144;SDS011;5113;41.822;23.564;2023-09-30T03:57:03;7.70;;;6.50;;
10144;SDS011;5113;41.822;23.564;2023-09-30T04:00:11;7.93;;;6.97;;
10144;SDS011;5113;41.822;23.564;2023-09-30T04:03:25;8.50;;;7.10;;
10144;SDS011;5113;41.822;23.564;2023-09-30T04:06:31;8.30;;;7.00;;
10144;SDS011;5113;41.822;23.564;2023-09-30T04:09:38;13.20;;;7.43;;
10144;SDS011;5113;41.822;23.564;2023-09-30T04:12:45;8.13;;;6.43;;
10144;SDS011;5113;41.822;23.564;2023-09-30T04:15:54;7.73;;;6.80;;
10144;SDS011;5113;41.822;23.564;2023-09-30T04:19:03;9.47;;;6.77;;
10144;SDS011;5113;41.822;23.564;2023-09-30T04:22:12;8.27;;;7.47;;
10144;SDS011;5113;41.822;23.564;2023-09-30T04:25:21;7.80;;;6.53;;
10144;SDS011;5113;41.822;23.564;2023-09-30T04:28:29;10.97;;;7.37;;
10144;SDS011;5113;41.822;23.564;2023-09-30T04:31:37;14.77;;;9.37;;
10144;SDS011;5113;41.822;23.564;2023-09-30T04:34:44;12.53;;;8.20;;
10144;SDS011;5113;41.822;23.564;2023-09-30T04:37:51;12.40;;;8.23;;
10144;SDS011;5113;41.822;23.564;2023-09-30T04:40:58;10.80;;;7.87;;
10144;SDS011;5113;41.822;23.564;2023-09-30T04:44:05;11.23;;;7.60;;
10144;SDS011;5113;41.822;23.564;2023-09-30T04:47:15;8.53;;;7.13;;
10144;SDS011;5113;41.822;23.564;2023-09-30T04:50:23;15.97;;;9.27;;
10144;SDS011;5113;41.822;23.564;2023-09-30T04:53:30;9.00;;;7.53;;
10144;SDS011;5113;41.822;23.564;2023-09-30T04:56:38;10.23;;;6.87;;
10144;SDS011;5113;41.822;23.564;2023-09-30T04:59:45;6.83;;;6.07;;
10144;SDS011;5113;41.822;23.564;2023-09-30T05:02:54;8.30;;;6.00;;
10144;SDS011;5113;41.822;23.564;2023-09-30T05:06:01;11.43;;;6.50;;
10144;SDS011;5113;41.822;23.564;2023-09-30T05:09:08;10.13;;;8.63;;
10144;SDS011;5113;41.822;23.564;2023-09-30T05:12:14;9.73;;;7.30;;
10144;SDS011;5113;41.822;23.564;2023-09-30T05:15:22;10.70;;;7.17;;
10144;SDS011;5113;41.822;23.564;2023-09-30T05:18:30;8.80;;;6.00;;
10144;SDS011;5113;41.822;23.564;2023-09-30T05:21:37;9.73;;;6.93;;
10144;SDS011;5113;41.822;23.564;2023-09-30T05:24:44;10.33;;;6.77;;
10144;SDS011;5113;41.822;23.564;2023-09-30T05:27:50;8.97;;;6.73;;
10144;SDS011;5113;41.822;23.564;2023-09-30T05:30:57;8.57;;;6.20;;
10144;SDS011;5113;41.822;23.564;2023-09-30T05:34:06;9.60;;;6.47;;
10144;SDS011;5113;41.822;23.564;2023-09-30T05:37:12;7.70;;;6.43;;
10144;SDS011;5113;41.822;23.564;2023-09-30T05:40:19;13.57;;;6.47;;
10144;SDS011;5113;41.822;23.564;2023-09-30T05:43:30;11.60;;;6.87;;
10144;SDS011;5113;41.822;23.564;2023-09-30T05:46:37;8.50;;;6.87;;
10144;SDS011;5113;41.822;23.564;2023-09-30T05:49:45;7.07;;;6.37;;
10144;SDS011;5113;41.822;23.564;2023-09-30T05:52:53;9.07;;;7.00;;
10144;SDS011;5113;41.822;23.564;2023-09-30T05:56:01;8.47;;;6.33;;
10144;SDS011;5113;41.822;23.564;2023-09-30T05:59:08;9.87;;;6.87;;
10144;SDS011;5113;41.822;23.564;2023-09-30T06:02:15;8.80;;;7.37;;
10144;SDS011;5113;41.822;23.564;2023-09-30T06:05:23;7.90;;;7.03;;
10144;SDS011;5113;41.822;23.564;2023-09-30T06:08:30;10.60;;;7.60;;
10144;SDS011;5113;41.822;23.564;2023-09-30T06:11:37;11.03;;;7.87;;
10144;SDS011;5113;41.822;23.564;2023-09-30T06:14:45;12.90;;;6.70;;
10144;SDS011;5113;41.822;23.564;2023-09-30T06:17:52;8.80;;;7.90;;
10144;SDS011;5113;41.822;23.564;2023-09-30T06:21:01;11.77;;;7.73;;
10144;SDS011;5113;41.822;23.564;2023-09-30T06:24:08;8.57;;;7.53;;
10144;SDS011;5113;41.822;23.564;2023-09-30T06:27:15;9.50;;;7.60;;
10144;SDS011;5113;41.822;23.564;2023-09-30T06:30:22;10.37;;;7.43;;
10144;SDS011;5113;41.822;23.564;2023-09-30T06:33:35;11.40;;;7.63;;
10144;SDS011;5113;41.822;23.564;2023-09-30T06:36:44;9.33;;;8.33;;
10144;SDS011;5113;41.822;23.564;2023-09-30T06:39:50;12.43;;;7.40;;
10144;SDS011;5113;41.822;23.564;2023-09-30T06:42:58;11.83;;;7.60;;
10144;SDS011;5113;41.822;23.564;2023-09-30T06:46:05;7.67;;;6.00;;
10144;SDS011;5113;41.822;23.564;2023-09-30T06:49:14;8.13;;;6.23;;
10144;SDS011;5113;41.822;23.564;2023-09-30T06:52:22;8.30;;;6.47;;
10144;SDS011;5113;41.822;23.564;2023-09-30T06:55:28;8.00;;;6.93;;
10144;SDS011;5113;41.822;23.564;2023-09-30T06:58:35;9.13;;;5.67;;
10144;SDS011;5113;41.822;23.564;2023-09-30T07:01:42;8.57;;;5.27;;
10144;SDS011;5113;41.822;23.564;2023-09-30T07:04:49;7.87;;;6.03;;
10144;SDS011;5113;41.822;23.564;2023-09-30T07:07:57;6.90;;;5.60;;
10144;SDS011;5113;41.822;23.564;2023-09-30T07:11:03;7.93;;;6.60;;
10144;SDS011;5113;41.822;23.564;2023-09-30T07:14:12;7.10;;;5.30;;
10144;SDS011;5113;41.822;23.564;2023-09-30T07:17:19;6.10;;;5.50;;
10144;SDS011;5113;41.822;23.564;2023-09-30T07:20:25;8.30;;;5.57;;
10144;SDS011;5113;41.822;23.564;2023-09-30T07:23:33;12.93;;;6.33;;
10144;SDS011;5113;41.822;23.564;2023-09-30T07:26:40;8.80;;;5.83;;
10144;SDS011;5113;41.822;23.564;2023-09-30T07:29:46;6.17;;;5.57;;
10144;SDS011;5113;41.822;23.564;2023-09-30T07:32:54;10.37;;;6.13;;
10144;SDS011;5113;41.822;23.564;2023-09-30T07:36:00;8.20;;;5.70;;
10144;SDS011;5113;41.822;23.564;2023-09-30T07:39:09;9.37;;;5.93;;
10144;SDS011;5113;41.822;23.564;2023-09-30T07:42:15;7.63;;;5.60;;
10144;SDS011;5113;41.822;23.564;2023-09-30T07:45:22;6.67;;;5.57;;
10144;SDS011;5113;41.822;23.564;2023-09-30T07:48:29;6.90;;;6.20;;
10144;SDS011;5113;41.822;23.564;2023-09-30T07:51:36;7.37;;;5.83;;
10144;SDS011;5113;41.822;23.564;2023-09-30T07:54:45;5.93;;;5.33;;
10144;SDS011;5113;41.822;23.564;2023-09-30T07:57:52;6.83;;;5.57;;
10144;SDS011;5113;41.822;23.564;2023-09-30T08:01:01;7.07;;;6.30;;
10144;SDS011;5113;41.822;23.564;2023-09-30T08:04:08;8.27;;;6.07;;
10144;SDS011;5113;41.822;23.564;2023-09-30T08:07:14;9.87;;;5.87;;
10144;SDS011;5113;41.822;23.564;2023-09-30T08:10:22;6.70;;;5.73;;
10144;SDS011;5113;41.822;23.564;2023-09-30T08:13:29;10.30;;;6.27;;
10144;SDS011;5113;41.822;23.564;2023-09-30T08:16:37;7.70;;;6.00;;
10144;SDS011;5113;41.822;23.564;2023-09-30T08:19:43;6.80;;;5.00;;
10144;SDS011;5113;41.822;23.564;2023-09-30T08:22:51;9.67;;;5.07;;
10144;SDS011;5113;41.822;23.564;2023-09-30T08:25:59;8.37;;;4.40;;
10144;SDS011;5113;41.822;23.564;2023-09-30T08:29:05;5.07;;;4.47;;
10144;SDS011;5113;41.822;23.564;2023-09-30T08:32:12;4.80;;;4.03;;
10144;SDS011;5113;41.822;23.564;2023-09-30T08:35:19;6.93;;;4.53;;
10144;SDS011;5113;41.822;23.564;2023-09-30T08:38:26;7.20;;;5.23;;
10144;SDS011;5113;41.822;23.564;2023-09-30T08:41:34;5.10;;;4.60;;
10144;SDS011;5113;41.822;23.564;2023-09-30T08:44:41;4.40;;;4.00;;
10144;SDS011;5113;41.822;23.564;2023-09-30T08:47:48;4.17;;;3.77;;
10144;SDS011;5113;41.822;23.564;2023-09-30T08:50:55;4.97;;;4.47;;
10144;SDS011;5113;41.822;23.564;2023-09-30T08:54:02;9.00;;;4.00;;
10144;SDS011;5113;41.822;23.564;2023-09-30T08:57:11;6.07;;;4.23;;
10144;SDS011;5113;41.822;23.564;2023-09-30T09:00:19;8.27;;;4.90;;
10144;SDS011;5113;41.822;23.564;2023-09-30T09:03:27;6.53;;;4.60;;
10144;SDS011;5113;41.822;23.564;2023-09-30T09:06:35;4.67;;;4.27;;
10144;SDS011;5113;41.822;23.564;2023-09-30T09:09:42;5.97;;;4.03;;
10144;SDS011;5113;41.822;23.564;2023-09-30T09:13:11;3.87;;;3.50;;
10144;SDS011;5113;41.822;23.564;2023-09-30T09:16:17;5.00;;;4.17;;
10144;SDS011;5113;41.822;23.564;2023-09-30T09:19:25;6.40;;;3.93;;
10144;SDS011;5113;41.822;23.564;2023-09-30T09:22:38;4.00;;;3.67;;
10144;SDS011;5113;41.822;23.564;2023-09-30T09:25:45;3.80;;;3.47;;
10144;SDS011;5113;41.822;23.564;2023-09-30T09:28:57;6.53;;;4.07;;
10144;SDS011;5113;41.822;23.564;2023-09-30T09:32:08;4.73;;;4.03;;
10144;SDS011;5113;41.822;23.564;2023-09-30T09:35:19;9.00;;;4.68;;
10144;SDS011;5113;41.822;23.564;2023-09-30T09:38:25;8.57;;;4.25;;
10144;SDS011;5113;41.822;23.564;2023-09-30T09:41:32;3.97;;;3.67;;
10144;SDS011;5113;41.822;23.564;2023-09-30T09:44:40;5.90;;;4.45;;
10144;SDS011;5113;41.822;23.564;2023-09-30T09:47:47;4.70;;;3.97;;
10144;SDS011;5113;41.822;23.564;2023-09-30T09:50:56;4.97;;;4.20;;
10144;SDS011;5113;41.822;23.564;2023-09-30T09:54:04;9.05;;;4.10;;
10144;SDS011;5113;41.822;23.564;2023-09-30T09:57:12;9.15;;;4.45;;
10144;SDS011;5113;41.822;23.564;2023-09-30T10:00:22;3.97;;;3.65;;
10144;SDS011;5113;41.822;23.564;2023-09-30T10:03:30;5.13;;;3.95;;
10144;SDS011;5113;41.822;23.564;2023-09-30T10:06:36;5.43;;;3.47;;
10144;SDS011;5113;41.822;23.564;2023-09-30T10:09:46;6.35;;;3.88;;
10144;SDS011;5113;41.822;23.564;2023-09-30T10:12:55;9.52;;;4.25;;
10144;SDS011;5113;41.822;23.564;2023-09-30T10:16:03;3.72;;;3.42;;
10144;SDS011;5113;41.822;23.564;2023-09-30T10:19:11;5.80;;;4.10;;
10144;SDS011;5113;41.822;23.564;2023-09-30T10:22:22;12.05;;;7.10;;
10144;SDS011;5113;41.822;23.564;2023-09-30T10:25:33;4.70;;;4.30;;
10144;SDS011;5113;41.822;23.564;2023-09-30T10:28:41;6.97;;;3.97;;
10144;SDS011;5113;41.822;23.564;2023-09-30T10:31:51;3.92;;;3.63;;
10144;SDS011;5113;41.822;23.564;2023-09-30T10:34:57;6.13;;;3.50;;
10144;SDS011;5113;41.822;23.564;2023-09-30T10:41:49;7.28;;;4.55;;
10144;SDS011;5113;41.822;23.564;2023-09-30T10:44:56;8.00;;;4.38;;
10144;SDS011;5113;41.822;23.564;2023-09-30T10:51:44;4.20;;;3.90;;
10144;SDS011;5113;41.822;23.564;2023-09-30T10:54:51;7.35;;;4.57;;
10144;SDS011;5113;41.822;23.564;2023-09-30T10:57:58;5.00;;;3.80;;
10144;SDS011;5113;41.822;23.564;2023-09-30T11:01:04;4.68;;;3.72;;
10144;SDS011;5113;41.822;23.564;2023-09-30T11:04:13;5.90;;;4.88;;
10144;SDS011;5113;41.822;23.564;2023-09-30T11:07:21;5.30;;;3.85;;
10144;SDS011;5113;41.822;23.564;2023-09-30T11:10:30;10.93;;;5.75;;
10144;SDS011;5113;41.822;23.564;2023-09-30T11:13:37;4.95;;;4.43;;
10144;SDS011;5113;41.822;23.564;2023-09-30T11:16:43;5.43;;;3.95;;
10144;SDS011;5113;41.822;23.564;2023-09-30T11:19:52;8.15;;;5.88;;
10144;SDS011;5113;41.822;23.564;2023-09-30T11:22:59;7.85;;;4.88;;
10144;SDS011;5113;41.822;23.564;2023-09-30T11:26:05;5.97;;;3.25;;
10144;SDS011;5113;41.822;23.564;2023-09-30T11:29:13;9.60;;;4.30;;
10144;SDS011;5113;41.822;23.564;2023-09-30T11:32:23;4.60;;;4.20;;
10144;SDS011;5113;41.822;23.564;2023-09-30T11:35:33;7.22;;;4.32;;
10144;SDS011;5113;41.822;23.564;2023-09-30T11:38:43;8.52;;;4.43;;
10144;SDS011;5113;41.822;23.564;2023-09-30T11:41:51;5.63;;;4.30;;
10144;SDS011;5113;41.822;23.564;2023-09-30T11:44:59;5.93;;;4.07;;
10144;SDS011;5113;41.822;23.564;2023-09-30T11:48:16;4.60;;;4.10;;
10144;SDS011;5113;41.822;23.564;2023-09-30T11:51:26;4.53;;;4.07;;
10144;SDS011;5113;41.822;23.564;2023-09-30T11:54:34;4.78;;;4.30;;
10144;SDS011;5113;41.822;23.564;2023-09-30T11:57:42;4.65;;;4.22;;
10144;SDS011;5113;41.822;23.564;2023-09-30T12:00:49;5.70;;;5.10;;
10144;SDS011;5113;41.822;23.564;2023-09-30T12:03:58;4.30;;;3.90;;
10144;SDS011;5113;41.822;23.564;2023-09-30T12:07:06;6.25;;;5.00;;
10144;SDS011;5113;41.822;23.564;2023-09-30T12:10:13;7.15;;;4.82;;
10144;SDS011;5113;41.822;23.564;2023-09-30T12:13:19;6.97;;;3.83;;
10144;SDS011;5113;41.822;23.564;2023-09-30T12:16:25;7.10;;;4.10;;
10144;SDS011;5113;41.822;23.564;2023-09-30T12:19:32;4.72;;;3.70;;
10144;SDS011;5113;41.822;23.564;2023-09-30T12:22:40;5.63;;;4.30;;
10144;SDS011;5113;41.822;23.564;2023-09-30T12:25:47;4.43;;;4.03;;
10144;SDS011;5113;41.822;23.564;2023-09-30T12:29:14;4.07;;;3.78;;
10144;SDS011;5113;41.822;23.564;2023-09-30T12:32:22;5.60;;;4.10;;
10144;SDS011;5113;41.822;23.564;2023-09-30T12:35:29;4.10;;;3.70;;
10144;SDS011;5113;41.822;23.564;2023-09-30T12:38:37;4.55;;;4.13;;
10144;SDS011;5113;41.822;23.564;2023-09-30T12:41:43;4.57;;;4.18;;
10144;SDS011;5113;41.822;23.564;2023-09-30T12:44:50;5.32;;;4.00;;
10144;SDS011;5113;41.822;23.564;2023-09-30T12:47:57;4.95;;;4.15;;
10144;SDS011;5113;41.822;23.564;2023-09-30T12:51:03;4.68;;;3.90;;
10144;SDS011;5113;41.822;23.564;2023-09-30T12:54:12;13.32;;;4.57;;
10144;SDS011;5113;41.822;23.564;2023-09-30T12:57:19;5.18;;;4.57;;
10144;SDS011;5113;41.822;23.564;2023-09-30T13:00:26;10.80;;;4.60;;
10144;SDS011;5113;41.822;23.564;2023-09-30T13:03:35;4.32;;;3.92;;
10144;SDS011;5113;41.822;23.564;2023-09-30T13:06:43;4.82;;;4.00;;
10144;SDS011;5113;41.822;23.564;2023-09-30T13:09:51;5.03;;;4.53;;
10144;SDS011;5113;41.822;23.564;2023-09-30T13:12:58;5.15;;;4.65;;
10144;SDS011;5113;41.822;23.564;2023-09-30T13:16:05;4.10;;;3.80;;
10144;SDS011;5113;41.822;23.564;2023-09-30T13:19:12;4.85;;;4.38;;
10144;SDS011;5113;41.822;23.564;2023-09-30T13:22:20;4.90;;;4.30;;
10144;SDS011;5113;41.822;23.564;2023-09-30T13:25:28;8.48;;;4.05;;
10144;SDS011;5113;41.822;23.564;2023-09-30T13:28:35;6.65;;;4.22;;
10144;SDS011;5113;41.822;23.564;2023-09-30T13:31:42;5.47;;;4.38;;
10144;SDS011;5113;41.822;23.564;2023-09-30T13:34:50;8.13;;;4.13;;
10144;SDS011;5113;41.822;23.564;2023-09-30T13:37:57;7.20;;;4.72;;
10144;SDS011;5113;41.822;23.564;2023-09-30T13:41:06;10.05;;;5.43;;
10144;SDS011;5113;41.822;23.564;2023-09-30T13:44:13;7.32;;;4.90;;
10144;SDS011;5113;41.822;23.564;2023-09-30T13:47:19;5.50;;;4.05;;
10144;SDS011;5113;41.822;23.564;2023-09-30T13:50:26;5.10;;;4.55;;
10144;SDS011;5113;41.822;23.564;2023-09-30T13:53:33;7.45;;;4.10;;
10144;SDS011;5113;41.822;23.564;2023-09-30T13:56:41;9.77;;;4.68;;
10144;SDS011;5113;41.822;23.564;2023-09-30T13:59:49;4.65;;;3.97;;
10144;SDS011;5113;41.822;23.564;2023-09-30T14:02:55;7.18;;;4.40;;
10144;SDS011;5113;41.822;23.564;2023-09-30T14:06:05;5.95;;;4.55;;
10144;SDS011;5113;41.822;23.564;2023-09-30T14:09:16;5.35;;;4.45;;
10144;SDS011;5113;41.822;23.564;2023-09-30T14:12:40;4.75;;;4.32;;
10144;SDS011;5113;41.822;23.564;2023-09-30T14:15:47;6.18;;;4.47;;
10144;SDS011;5113;41.822;23.564;2023-09-30T14:18:54;4.93;;;4.47;;
10144;SDS011;5113;41.822;23.564;2023-09-30T14:22:00;5.20;;;4.22;;
10144;SDS011;5113;41.822;23.564;2023-09-30T14:25:08;6.50;;;5.22;;
10144;SDS011;5113;41.822;23.564;2023-09-30T14:28:16;4.95;;;4.38;;
10144;SDS011;5113;41.822;23.564;2023-09-30T14:31:23;5.50;;;4.95;;
10144;SDS011;5113;41.822;23.564;2023-09-30T14:34:29;4.30;;;4.00;;
10144;SDS011;5113;41.822;23.564;2023-09-30T14:37:36;6.75;;;4.43;;
10144;SDS011;5113;41.822;23.564;2023-09-30T14:40:43;6.03;;;4.53;;
10144;SDS011;5113;41.822;23.564;2023-09-30T14:43:51;5.35;;;4.35;;
10144;SDS011;5113;41.822;23.564;2023-09-30T14:46:57;5.78;;;5.28;;
10144;SDS011;5113;41.822;23.564;2023-09-30T14:50:05;4.60;;;3.90;;
10144;SDS011;5113;41.822;23.564;2023-09-30T14:53:13;7.45;;;4.88;;
10144;SDS011;5113;41.822;23.564;2023-09-30T14:56:19;5.38;;;4.82;;
10144;SDS011;5113;41.822;23.564;2023-09-30T14:59:28;5.30;;;4.80;;
10144;SDS011;5113;41.822;23.564;2023-09-30T15:02:34;9.63;;;5.88;;
10144;SDS011;5113;41.822;23.564;2023-09-30T15:05:43;6.18;;;5.60;;
10144;SDS011;5113;41.822;23.564;2023-09-30T15:08:50;6.38;;;5.78;;
10144;SDS011;5113;41.822;23.564;2023-09-30T15:11:56;7.63;;;6.55;;
10144;SDS011;5113;41.822;23.564;2023-09-30T15:15:05;6.03;;;5.43;;
10144;SDS011;5113;41.822;23.564;2023-09-30T15:18:12;6.47;;;5.43;;
10144;SDS011;5113;41.822;23.564;2023-09-30T15:21:19;10.63;;;6.57;;
10144;SDS011;5113;41.822;23.564;2023-09-30T15:24:26;6.53;;;4.85;;
10144;SDS011;5113;41.822;23.564;2023-09-30T15:27:32;7.00;;;5.03;;
10144;SDS011;5113;41.822;23.564;2023-09-30T15:30:40;13.47;;;11.83;;
10144;SDS011;5113;41.822;23.564;2023-09-30T15:33:47;12.43;;;10.50;;
10144;SDS011;5113;41.822;23.564;2023-09-30T15:36:54;16.50;;;9.80;;
10144;SDS011;5113;41.822;23.564;2023-09-30T15:40:01;12.87;;;9.97;;
10144;SDS011;5113;41.822;23.564;2023-09-30T15:43:09;12.30;;;8.67;;
10144;SDS011;5113;41.822;23.564;2023-09-30T15:46:18;8.53;;;7.33;;
10144;SDS011;5113;41.822;23.564;2023-09-30T15:49:25;10.83;;;8.13;;
10144;SDS011;5113;41.822;23.564;2023-09-30T15:52:32;19.23;;;11.90;;
10144;SDS011;5113;41.822;23.564;2023-09-30T15:55:40;12.60;;;8.67;;
10144;SDS011;5113;41.822;23.564;2023-09-30T15:58:46;20.57;;;11.40;;
10144;SDS011;5113;41.822;23.564;2023-09-30T16:01:55;14.97;;;9.93;;
10144;SDS011;5113;41.822;23.564;2023-09-30T16:05:01;17.30;;;10.77;;
10144;SDS011;5113;41.822;23.564;2023-09-30T16:08:08;12.63;;;9.43;;
10144;SDS011;5113;41.822;23.564;2023-09-30T16:11:15;11.80;;;7.03;;
10144;SDS011;5113;41.822;23.564;2023-09-30T16:14:22;7.50;;;5.97;;
10144;SDS011;5113;41.822;23.564;2023-09-30T16:17:30;27.80;;;12.97;;
10144;SDS011;5113;41.822;23.564;2023-09-30T16:20:37;14.00;;;7.03;;
10144;SDS011;5113;41.822;23.564;2023-09-30T16:23:44;10.33;;;7.60;;
10144;SDS011;5113;41.822;23.564;2023-09-30T16:26:50;15.07;;;8.17;;
10144;SDS011;5113;41.822;23.564;2023-09-30T16:29:57;17.83;;;8.87;;
10144;SDS011;5113;41.822;23.564;2023-09-30T16:33:05;25.33;;;12.73;;
10144;SDS011;5113;41.822;23.564;2023-09-30T16:36:12;17.00;;;9.53;;
10144;SDS011;5113;41.822;23.564;2023-09-30T16:39:20;17.63;;;9.03;;
10144;SDS011;5113;41.822;23.564;2023-09-30T16:42:26;12.27;;;7.53;;
10144;SDS011;5113;41.822;23.564;2023-09-30T16:45:36;9.57;;;5.53;;
10144;SDS011;5113;41.822;23.564;2023-09-30T16:48:44;8.20;;;6.57;;
10144;SDS011;5113;41.822;23.564;2023-09-30T16:51:50;9.80;;;6.03;;
10144;SDS011;5113;41.822;23.564;2023-09-30T16:54:57;6.13;;;5.37;;
10144;SDS011;5113;41.822;23.564;2023-09-30T16:58:04;13.23;;;7.40;;
10144;SDS011;5113;41.822;23.564;2023-09-30T17:01:12;13.33;;;8.37;;
10144;SDS011;5113;41.822;23.564;2023-09-30T17:04:20;16.57;;;7.37;;
10144;SDS011;5113;41.822;23.564;2023-09-30T17:07:26;9.50;;;7.30;;
10144;SDS011;5113;41.822;23.564;2023-09-30T17:10:33;13.63;;;8.40;;
10144;SDS011;5113;41.822;23.564;2023-09-30T17:13:39;12.93;;;7.90;;
10144;SDS011;5113;41.822;23.564;2023-09-30T17:16:46;17.20;;;8.30;;
10144;SDS011;5113;41.822;23.564;2023-09-30T17:19:54;11.10;;;6.10;;
10144;SDS011;5113;41.822;23.564;2023-09-30T17:23:00;8.97;;;5.90;;
10144;SDS011;5113;41.822;23.564;2023-09-30T17:26:06;12.57;;;6.17;;
10144;SDS011;5113;41.822;23.564;2023-09-30T17:29:13;8.97;;;6.77;;
10144;SDS011;5113;41.822;23.564;2023-09-30T17:32:20;11.47;;;8.53;;
10144;SDS011;5113;41.822;23.564;2023-09-30T17:35:28;16.53;;;11.03;;
10144;SDS011;5113;41.822;23.564;2023-09-30T17:38:35;8.57;;;7.07;;
10144;SDS011;5113;41.822;23.564;2023-09-30T17:41:42;9.67;;;7.17;;
10144;SDS011;5113;41.822;23.564;2023-09-30T17:44:49;8.63;;;6.67;;
10144;SDS011;5113;41.822;23.564;2023-09-30T17:47:56;10.47;;;7.17;;
10144;SDS011;5113;41.822;23.564;2023-09-30T17:51:04;12.90;;;7.30;;
10144;SDS011;5113;41.822;23.564;2023-09-30T17:54:11;11.17;;;6.07;;
10144;SDS011;5113;41.822;23.564;2023-09-30T17:57:18;8.53;;;6.00;;
10144;SDS011;5113;41.822;23.564;2023-09-30T18:00:25;7.77;;;6.10;;
10144;SDS011;5113;41.822;23.564;2023-09-30T18:03:32;9.33;;;5.97;;
10144;SDS011;5113;41.822;23.564;2023-09-30T18:06:40;8.20;;;5.90;;
10144;SDS011;5113;41.822;23.564;2023-09-30T18:09:47;14.60;;;6.87;;
10144;SDS011;5113;41.822;23.564;2023-09-30T18:12:53;9.23;;;6.87;;
10144;SDS011;5113;41.822;23.564;2023-09-30T18:16:00;19.33;;;9.10;;
10144;SDS011;5113;41.822;23.564;2023-09-30T18:19:08;14.37;;;8.10;;
10144;SDS011;5113;41.822;23.564;2023-09-30T18:22:16;17.57;;;8.30;;
10144;SDS011;5113;41.822;23.564;2023-09-30T18:25:23;12.03;;;8.23;;
10144;SDS011;5113;41.822;23.564;2023-09-30T18:28:30;10.70;;;7.97;;
10144;SDS011;5113;41.822;23.564;2023-09-30T18:31:36;11.23;;;7.87;;
10144;SDS011;5113;41.822;23.564;2023-09-30T18:34:43;10.93;;;8.07;;
10144;SDS011;5113;41.822;23.564;2023-09-30T18:37:51;9.83;;;7.57;;
10144;SDS011;5113;41.822;23.564;2023-09-30T18:40:58;10.63;;;7.93;;
10144;SDS011;5113;41.822;23.564;2023-09-30T18:44:05;14.27;;;8.27;;
10144;SDS011;5113;41.822;23.564;2023-09-30T18:47:12;11.77;;;7.40;;
10144;SDS011;5113;41.822;23.564;2023-09-30T18:50:18;11.53;;;7.60;;
10144;SDS011;5113;41.822;23.564;2023-09-30T18:53:27;10.83;;;8.03;;